Time;durP1;ratioP1;P1;durP2;ratioP2;P2;SDS_P1;SDS_P2;PMS_P1;PMS_P2;Temp;Humidity;BMP_temperature;BMP_pressure;BME280_temperature;BME280_humidity;BME280_pressure;Samples;Min_cycle;Max_cycle;Signal;HPM_P1;HPM_P2
2022/06/24 00:01:20;;;;;;;7.25;2.70;;;;;;;19.09;92.82;95698.81;4873090;29;20050;-79
2022/06/24 00:03:47;;;;;;;6.22;2.70;;;;;;;18.84;96.13;95693.97;4870328;29;20045;-79
2022/06/24 00:06:15;;;;;;;14.77;3.13;;;;;;;18.66;99.33;95693.06;4870771;29;20054;-80
2022/06/24 00:08:53;;;;;;;9.05;3.00;;;;;;;18.72;100.00;95733.72;4877591;29;20049;-81
2022/06/24 00:11:26;;;;;;;8.95;2.83;;;;;;;18.74;97.09;95777.44;4881796;29;20042;-80
2022/06/24 00:13:53;;;;;;;10.02;2.50;;;;;;;18.76;98.36;95797.19;4882733;29;20084;-81
2022/06/24 00:16:19;;;;;;;6.82;2.63;;;;;;;18.88;97.79;95799.59;4868301;29;20037;-80
2022/06/24 00:19:04;;;;;;;8.50;2.20;;;;;;;18.90;95.79;95796.47;4902739;29;20028;-82
2022/06/24 00:21:31;;;;;;;5.63;2.13;;;;;;;18.91;95.29;95796.09;4881279;29;20096;-80
2022/06/24 00:23:57;;;;;;;10.02;3.03;;;;;;;18.71;96.65;95805.81;4919883;29;20046;-79
2022/06/24 00:26:39;;;;;;;9.85;2.28;;;;;;;18.62;97.43;95806.09;4917215;29;20036;-78
2022/06/24 00:29:06;;;;;;;7.90;2.10;;;;;;;18.52;96.90;95815.88;4920343;29;20065;-80
2022/06/24 00:31:32;;;;;;;7.07;2.63;;;;;;;18.61;97.96;95809.25;4920674;29;20047;-81
2022/06/24 00:39:21;;;;;;;5.95;1.77;;;;;;;18.90;95.91;95830.38;4921222;29;20060;-81
2022/06/24 00:41:52;;;;;;;11.18;1.80;;;;;;;18.67;94.12;95832.53;4920701;29;20029;-81
2022/06/24 00:44:21;;;;;;;7.68;1.77;;;;;;;18.25;96.05;95817.22;4900401;29;20059;-79
2022/06/24 00:46:49;;;;;;;4.57;1.73;;;;;;;18.40;95.94;95818.94;4921109;29;20045;-82
2022/06/24 00:49:24;;;;;;;5.97;2.45;;;;;;;18.35;96.32;95819.28;4909787;29;20041;-82
2022/06/24 00:51:50;;;;;;;6.55;1.95;;;;;;;18.08;96.74;95813.16;4900853;29;20041;-80
2022/06/24 00:54:17;;;;;;;5.15;2.13;;;;;;;18.07;98.03;95821.81;4900655;29;20035;-82
2022/06/24 00:56:46;;;;;;;7.05;1.77;;;;;;;18.06;98.86;95820.19;4902166;29;20077;-82
2022/06/24 00:59:14;;;;;;;5.45;2.03;;;;;;;17.90;99.38;95823.97;4885523;29;20038;-79
2022/06/24 01:01:44;;;;;;;5.82;1.75;;;;;;;17.83;99.75;95823.13;4901373;29;20041;-81
2022/06/24 01:04:11;;;;;;;6.88;1.92;;;;;;;17.75;100.00;95822.28;4899301;29;20052;-81
2022/06/24 01:06:41;;;;;;;7.13;1.88;;;;;;;17.74;99.37;95817.91;4898708;29;20052;-80
2022/06/24 01:09:08;;;;;;;3.80;1.40;;;;;;;17.69;99.44;95823.72;4898327;29;20048;-79
2022/06/24 01:14:18;;;;;;;4.93;1.50;;;;;;;17.63;99.00;95822.50;4892431;29;20025;-80
2022/06/24 01:16:45;;;;;;;6.18;1.40;;;;;;;17.70;98.38;95808.81;4903111;29;20029;-82
2022/06/24 01:19:14;;;;;;;3.80;1.17;;;;;;;17.68;98.02;95811.94;4900192;29;20049;-80
2022/06/24 01:21:43;;;;;;;4.07;1.40;;;;;;;17.71;97.96;95810.41;4891182;29;20052;-80
2022/06/24 01:24:11;;;;;;;3.75;1.10;;;;;;;17.68;96.84;95800.91;4875018;29;20061;-80
2022/06/24 01:26:40;;;;;;;4.57;1.27;;;;;;;17.72;97.42;95811.97;4895726;29;20040;-79
2022/06/24 01:29:07;;;;;;;4.55;1.20;;;;;;;17.71;97.09;95811.19;4894624;29;20057;-81
2022/06/24 01:31:34;;;;;;;5.55;1.10;;;;;;;17.87;96.46;95823.97;4894454;29;20045;-81
2022/06/24 01:34:09;;;;;;;5.22;1.13;;;;;;;17.69;96.48;95823.72;4878836;29;20064;-81
2022/06/24 01:36:36;;;;;;;5.70;1.15;;;;;;;17.74;96.46;95820.66;4896022;29;20049;-82
2022/06/24 01:39:05;;;;;;;3.30;1.08;;;;;;;17.57;97.20;95829.50;4895074;29;20082;-79
2022/06/24 01:41:31;;;;;;;7.00;1.33;;;;;;;17.61;96.82;95827.59;4897575;29;20052;-81
2022/06/24 01:43:58;;;;;;;4.82;1.25;;;;;;;17.54;96.57;95830.25;4896817;29;20053;-80
2022/06/24 01:46:25;;;;;;;4.63;1.10;;;;;;;17.66;96.52;95824.50;4878782;29;20121;-81
2022/06/24 01:48:51;;;;;;;3.85;1.30;;;;;;;17.58;96.36;95831.09;4895704;29;20065;-80
2022/06/24 01:51:20;;;;;;;2.05;0.90;;;;;;;17.51;97.54;95828.25;4863479;29;20048;-81
2022/06/24 01:53:50;;;;;;;5.80;1.33;;;;;;;17.62;96.69;95829.16;4898807;29;20037;-80
2022/06/24 01:56:18;;;;;;;3.63;1.23;;;;;;;17.68;96.46;95816.66;4872635;29;20053;-80
2022/06/24 01:58:45;;;;;;;2.75;1.00;;;;;;;17.69;95.91;95818.22;4897102;29;20045;-81
2022/06/24 02:03:53;;;;;;;3.17;1.33;;;;;;;17.65;95.57;95806.41;4872788;29;20045;-81
2022/06/24 02:06:19;;;;;;;3.17;1.20;;;;;;;17.52;95.88;95807.81;4896175;29;20155;-81
2022/06/24 02:08:47;;;;;;;3.10;1.00;;;;;;;17.68;95.14;95805.63;4891902;29;20037;-79
2022/06/24 02:14:01;;;;;;;3.25;0.90;;;;;;;17.67;95.41;95809.56;4875516;29;20061;-81
2022/06/24 02:16:28;;;;;;;3.45;0.98;;;;;;;17.65;95.11;95811.91;4873983;29;20109;-80
2022/06/24 02:18:55;;;;;;;4.13;1.13;;;;;;;17.62;94.77;95798.88;4874332;29;20475;-80
2022/06/24 02:21:23;;;;;;;3.95;1.10;;;;;;;17.60;95.36;95792.97;4861626;29;20040;-82
2022/06/24 02:23:51;;;;;;;3.72;1.17;;;;;;;17.56;94.81;95800.41;4883981;29;20034;-81
2022/06/24 02:26:18;;;;;;;3.88;1.50;;;;;;;17.40;94.99;95795.91;4867954;29;20072;-81
2022/06/24 02:28:45;;;;;;;4.18;1.15;;;;;;;17.49;95.29;95798.38;4884034;29;20053;-82
2022/06/24 02:31:13;;;;;;;2.88;1.35;;;;;;;17.25;95.51;95791.38;4874301;29;20053;-79
2022/06/24 02:33:41;;;;;;;5.47;1.30;;;;;;;17.38;95.69;95792.75;4874753;29;20046;-81
2022/06/24 02:36:08;;;;;;;3.55;1.30;;;;;;;17.42;95.64;95787.25;4858307;29;20053;-81
2022/06/24 02:38:36;;;;;;;6.35;1.30;;;;;;;17.47;94.46;95789.66;4877140;29;20049;-80
2022/06/24 02:41:03;;;;;;;7.28;1.40;;;;;;;17.35;94.58;95782.47;4860240;29;20053;-78
2022/06/24 02:43:32;;;;;;;6.20;1.17;;;;;;;17.06;95.69;95777.78;4882075;29;20053;-78
2022/06/24 02:46:01;;;;;;;4.47;1.20;;;;;;;17.24;95.51;95781.56;4882458;29;20037;-80
2022/06/24 02:48:30;;;;;;;3.63;1.25;;;;;;;17.18;95.96;95783.06;4860259;29;20513;-80
2022/06/24 02:50:58;;;;;;;5.70;1.33;;;;;;;17.23;95.64;95785.47;4876946;29;20064;-81
2022/06/24 02:53:27;;;;;;;4.78;1.20;;;;;;;17.20;95.07;95778.75;4874069;29;20049;-81
2022/06/24 02:55:54;;;;;;;4.50;1.10;;;;;;;17.12;95.12;95779.03;4878550;29;20065;-80
2022/06/24 02:58:21;;;;;;;7.03;1.60;;;;;;;17.28;94.85;95787.91;4883106;29;20125;-81
2022/06/24 03:00:49;;;;;;;2.70;1.02;;;;;;;17.13;94.62;95780.63;4866406;29;20052;-81
2022/06/24 03:03:16;;;;;;;3.13;1.08;;;;;;;17.29;94.96;95781.22;4872355;29;20077;-80
2022/06/24 03:05:45;;;;;;;2.10;1.00;;;;;;;17.35;93.53;95781.69;4863912;29;20052;-82
2022/06/24 03:08:14;;;;;;;7.45;1.27;;;;;;;17.20;93.23;95792.50;4857121;29;20079;-80
2022/06/24 03:10:43;;;;;;;4.35;1.10;;;;;;;17.07;94.20;95793.09;4876608;29;20045;-79
2022/06/24 03:13:13;;;;;;;4.80;1.08;;;;;;;17.08;94.36;95794.72;4868898;29;20110;-79
2022/06/24 03:15:40;;;;;;;5.57;1.00;;;;;;;17.01;94.74;95802.84;4852805;29;20082;-78
2022/06/24 03:18:07;;;;;;;4.50;1.10;;;;;;;17.14;93.83;95801.47;4868246;29;20127;-78
2022/06/24 03:20:34;;;;;;;4.45;1.17;;;;;;;17.13;93.45;95806.19;4866990;29;20054;-79
2022/06/24 03:23:01;;;;;;;2.83;0.93;;;;;;;17.31;92.68;95800.88;4868848;29;20053;-82
2022/06/24 03:25:28;;;;;;;4.50;0.93;;;;;;;17.32;92.09;95805.22;4869981;29;20050;-79
2022/06/24 03:27:54;;;;;;;2.55;0.95;;;;;;;17.39;92.04;95797.06;4865509;29;20053;-79
2022/06/24 03:30:21;;;;;;;5.38;1.10;;;;;;;17.43;91.47;95811.63;4868298;29;20660;-81
2022/06/24 03:32:48;;;;;;;5.43;1.20;;;;;;;17.40;91.65;95806.91;4868998;29;20041;-81
2022/06/24 03:35:14;;;;;;;5.47;1.20;;;;;;;17.41;91.18;95816.75;4869355;29;20502;-81
2022/06/24 03:37:41;;;;;;;3.10;1.10;;;;;;;17.38;91.08;95820.25;4872705;29;20077;-82
2022/06/24 03:40:10;;;;;;;6.43;1.90;;;;;;;17.45;91.29;95823.09;4880685;29;20056;-80
2022/06/24 03:42:36;;;;;;;4.38;1.20;;;;;;;17.48;90.52;95813.25;4887316;29;20055;-81
2022/06/24 03:45:03;;;;;;;5.40;1.38;;;;;;;17.43;89.80;95819.09;4887132;29;20080;-80
2022/06/24 03:47:30;;;;;;;4.40;1.35;;;;;;;17.57;89.23;95821.25;4886799;29;20056;-81
2022/06/24 03:49:56;;;;;;;3.95;1.33;;;;;;;17.58;89.05;95817.31;4888333;29;20064;-80
2022/06/24 03:52:22;;;;;;;1.75;0.95;;;;;;;17.60;88.71;95807.53;4886903;29;20045;-80
2022/06/24 03:54:49;;;;;;;3.15;0.98;;;;;;;17.70;89.18;95808.81;4884627;29;20049;-80
2022/06/24 03:57:17;;;;;;;4.15;1.25;;;;;;;17.82;88.59;95816.84;4888162;29;20045;-80
2022/06/24 03:59:44;;;;;;;5.18;1.20;;;;;;;17.90;87.87;95815.72;4885565;29;20105;-80
2022/06/24 04:02:10;;;;;;;4.10;1.17;;;;;;;17.78;87.87;95809.69;4886994;29;20129;-82
2022/06/24 04:04:37;;;;;;;5.38;0.98;;;;;;;17.92;87.97;95816.16;4886232;29;20045;-79
2022/06/24 04:07:04;;;;;;;3.92;1.10;;;;;;;17.83;86.61;95812.91;4885127;29;20060;-81
2022/06/24 04:09:30;;;;;;;2.45;0.95;;;;;;;17.92;87.17;95815.38;4887767;29;20055;-81
2022/06/24 04:11:57;;;;;;;3.67;1.15;;;;;;;17.94;87.07;95807.50;4887242;29;20060;-81
2022/06/24 04:17:09;;;;;;;3.85;0.98;;;;;;;18.03;86.09;95807.19;4888326;29;20052;-79
2022/06/24 04:19:36;;;;;;;5.45;1.25;;;;;;;18.06;86.70;95814.69;4883982;29;20045;-80
2022/06/24 04:22:04;;;;;;;6.78;1.20;;;;;;;18.11;85.51;95806.88;4883840;29;20075;-79
2022/06/24 04:24:32;;;;;;;3.33;1.13;;;;;;;18.13;85.77;95809.25;4883326;29;20037;-81
2022/06/24 04:26:59;;;;;;;4.50;1.10;;;;;;;18.06;85.23;95812.72;4884249;29;20048;-81
2022/06/24 04:29:29;;;;;;;6.03;1.27;;;;;;;18.09;85.82;95819.44;4883493;29;20104;-78
2022/06/24 04:31:55;;;;;;;3.47;1.20;;;;;;;18.02;85.76;95822.16;4884716;29;20493;-81
2022/06/24 04:34:21;;;;;;;10.30;1.48;;;;;;;17.93;85.84;95812.22;4888303;29;20060;-79
2022/06/24 04:36:48;;;;;;;3.10;1.25;;;;;;;18.09;86.15;95819.44;4901278;29;20048;-81
2022/06/24 04:39:14;;;;;;;4.15;1.33;;;;;;;17.90;86.42;95815.72;4900277;29;20049;-81
2022/06/24 04:41:41;;;;;;;2.83;0.98;;;;;;;17.70;87.59;95825.34;4888217;29;20048;-80
2022/06/24 04:44:07;;;;;;;10.63;1.45;;;;;;;17.83;87.47;95823.13;4886054;29;20119;-80
2022/06/24 04:46:35;;;;;;;3.70;1.17;;;;;;;17.90;86.97;95818.47;4886836;29;20041;-80
2022/06/24 04:49:02;;;;;;;3.65;1.40;;;;;;;18.03;87.35;95826.47;4886313;29;20057;-79
2022/06/24 04:51:32;;;;;;;5.43;1.20;;;;;;;18.19;87.49;95814.03;4885887;29;20045;-80
2022/06/24 04:53:58;;;;;;;4.60;1.27;;;;;;;18.23;87.20;95819.59;4885129;29;20049;-80
2022/06/24 04:56:25;;;;;;;4.82;1.52;;;;;;;18.29;86.47;95820.81;4885793;29;20045;-80
2022/06/24 04:58:51;;;;;;;7.63;1.33;;;;;;;18.30;86.24;95825.16;4886284;29;20057;-80
2022/06/24 05:01:18;;;;;;;7.25;1.58;;;;;;;18.35;86.38;95827.56;4886523;29;20060;-80
2022/06/24 05:03:46;;;;;;;3.75;1.38;;;;;;;18.22;85.85;95834.53;4872085;29;20087;-81
2022/06/24 05:06:13;;;;;;;7.18;1.63;;;;;;;18.07;86.57;95832.81;4890753;29;20109;-80
2022/06/24 05:08:39;;;;;;;4.10;1.10;;;;;;;18.22;86.05;95834.53;4889268;29;20048;-80
2022/06/24 05:11:06;;;;;;;2.17;1.10;;;;;;;18.35;86.12;95832.28;4885541;29;20417;-81
2022/06/24 05:13:33;;;;;;;7.15;2.00;;;;;;;18.30;85.31;95827.91;4886925;29;20397;-80
2022/06/24 05:15:59;;;;;;;3.25;1.10;;;;;;;18.40;85.39;95824.44;4884838;29;20052;-80
2022/06/24 05:18:26;;;;;;;3.70;1.10;;;;;;;18.51;86.37;95828.09;4884592;29;20044;-80
2022/06/24 05:20:54;;;;;;;3.40;1.45;;;;;;;18.56;85.70;95832.44;4883529;29;20113;-80
2022/06/24 05:23:20;;;;;;;3.65;1.23;;;;;;;18.64;85.25;95833.31;4882673;29;20057;-78
2022/06/24 05:25:47;;;;;;;3.55;1.17;;;;;;;18.68;84.55;95836.91;4877884;29;20045;-77
2022/06/24 05:28:13;;;;;;;4.75;1.27;;;;;;;18.71;85.02;95839.69;4877057;29;20049;-78
2022/06/24 05:30:39;;;;;;;5.25;1.80;;;;;;;18.63;85.83;95838.00;4878614;29;20049;-77
2022/06/24 05:33:06;;;;;;;7.18;1.48;;;;;;;18.62;86.38;95835.66;4877415;29;20060;-78
2022/06/24 05:35:32;;;;;;;4.53;1.55;;;;;;;18.73;85.82;95836.53;4877869;29;20049;-77
2022/06/24 05:38:00;;;;;;;3.83;1.30;;;;;;;18.84;86.26;95837.41;4877446;29;20049;-75
2022/06/24 05:40:27;;;;;;;5.60;1.63;;;;;;;18.82;85.41;95834.25;4868244;29;20045;-77
2022/06/24 05:42:53;;;;;;;3.72;1.35;;;;;;;18.72;84.41;95833.00;4876675;29;20053;-77
2022/06/24 05:45:21;;;;;;;4.95;1.13;;;;;;;18.78;84.75;95833.44;4876643;29;20561;-77
2022/06/24 05:47:47;;;;;;;3.90;1.35;;;;;;;18.81;85.15;95831.88;4877023;29;20472;-77
2022/06/24 05:50:13;;;;;;;3.90;1.40;;;;;;;18.80;85.34;95828.34;4876472;29;20053;-77
2022/06/24 05:55:25;;;;;;;3.40;1.20;;;;;;;18.78;84.85;95822.41;4876530;29;20060;-77
2022/06/24 05:57:52;;;;;;;6.07;1.65;;;;;;;18.77;85.10;95831.84;4876804;29;20072;-77
2022/06/24 06:00:19;;;;;;;5.28;1.30;;;;;;;18.79;85.16;95829.50;4876543;29;20064;-77
2022/06/24 06:02:45;;;;;;;4.57;1.20;;;;;;;18.76;84.52;95838.53;4876692;29;20048;-77
2022/06/24 06:05:12;;;;;;;6.88;1.13;;;;;;;18.56;84.33;95837.19;4876415;29;20073;-77
2022/06/24 06:07:38;;;;;;;9.80;1.88;;;;;;;18.66;85.49;95825.44;4876906;29;20064;-78
2022/06/24 06:10:06;;;;;;;2.72;1.20;;;;;;;18.77;85.86;95831.84;4876484;29;20049;-77
2022/06/24 06:12:35;;;;;;;5.03;1.63;;;;;;;18.85;85.75;95829.94;4879007;29;20056;-76
2022/06/24 06:15:02;;;;;;;6.95;1.55;;;;;;;18.83;85.27;95832.28;4894257;29;20453;-77
2022/06/24 06:17:28;;;;;;;7.22;1.80;;;;;;;18.91;84.88;95836.69;4895061;29;20053;-77
2022/06/24 06:19:54;;;;;;;4.88;1.30;;;;;;;18.78;85.45;95828.69;4895547;29;20649;-78
2022/06/24 06:22:21;;;;;;;7.70;1.83;;;;;;;18.75;84.08;95825.94;4896928;29;20260;-81
2022/06/24 06:24:47;;;;;;;5.00;1.50;;;;;;;18.89;83.26;95826.00;4881519;29;20732;-80
2022/06/24 06:27:15;;;;;;;5.88;1.30;;;;;;;19.16;82.55;95820.25;4896844;29;20052;-79
2022/06/24 06:29:44;;;;;;;4.80;1.65;;;;;;;19.38;82.25;95805.38;4897201;29;20048;-79
2022/06/24 06:32:11;;;;;;;4.82;1.58;;;;;;;19.52;83.56;95808.22;4896676;29;20057;-79
2022/06/24 06:34:40;;;;;;;3.70;1.20;;;;;;;19.58;82.53;95813.34;4897773;29;20044;-79
2022/06/24 06:37:06;;;;;;;6.20;1.23;;;;;;;19.46;78.73;95812.50;4895986;29;20492;-79
2022/06/24 06:39:33;;;;;;;4.43;1.15;;;;;;;19.44;79.66;95809.34;4889216;29;20544;-80
2022/06/24 06:41:59;;;;;;;3.90;1.10;;;;;;;19.58;79.86;95816.13;4879013;29;20049;-80
2022/06/24 06:44:26;;;;;;;5.43;1.50;;;;;;;19.60;79.36;95816.53;4878652;29;20053;-76
2022/06/24 06:46:53;;;;;;;4.85;1.48;;;;;;;19.67;79.66;95827.59;4876616;29;20045;-77
2022/06/24 06:49:20;;;;;;;3.38;1.48;;;;;;;19.64;78.46;95833.91;4876548;29;20049;-77
2022/06/24 06:51:46;;;;;;;3.15;1.40;;;;;;;19.60;78.23;95833.91;4877130;29;20049;-78
2022/06/24 06:54:13;;;;;;;5.53;1.60;;;;;;;19.71;78.90;95836.69;4876839;29;20053;-79
2022/06/24 06:56:40;;;;;;;3.47;1.35;;;;;;;19.80;79.32;95831.59;4877274;29;20076;-79
2022/06/24 06:59:06;;;;;;;7.05;1.50;;;;;;;19.69;76.64;95831.56;4877478;29;20139;-79
2022/06/24 07:01:33;;;;;;;9.05;1.42;;;;;;;19.78;77.13;95822.91;4877505;29;20462;-80
2022/06/24 07:04:01;;;;;;;3.90;1.25;;;;;;;19.89;77.63;95817.41;4879962;29;20061;-80
2022/06/24 07:06:27;;;;;;;3.08;1.15;;;;;;;19.89;78.34;95812.69;4881442;29;20093;-79
2022/06/24 07:08:54;;;;;;;5.85;1.45;;;;;;;19.90;77.67;95813.47;4882208;29;20053;-79
2022/06/24 07:11:20;;;;;;;4.45;1.40;;;;;;;20.01;78.06;95798.50;4861933;29;20106;-79
2022/06/24 07:13:47;;;;;;;5.80;1.33;;;;;;;20.04;77.10;95808.75;4861796;29;20045;-79
2022/06/24 07:16:13;;;;;;;3.60;1.33;;;;;;;20.07;77.41;95799.69;4861396;29;20060;-79
2022/06/24 07:18:40;;;;;;;3.42;1.30;;;;;;;20.02;77.50;95800.06;4863594;29;20037;-79
2022/06/24 07:21:08;;;;;;;6.05;1.35;;;;;;;20.03;76.82;95789.78;4845911;29;20077;-79
2022/06/24 07:23:35;;;;;;;4.43;1.30;;;;;;;20.12;76.99;95792.97;4863429;29;20050;-79
2022/06/24 07:26:02;;;;;;;5.32;1.38;;;;;;;20.21;76.58;95796.16;4861935;29;20084;-78
2022/06/24 07:28:28;;;;;;;7.13;1.40;;;;;;;20.21;77.09;95795.34;4845882;29;20049;-79
2022/06/24 07:30:55;;;;;;;3.75;1.20;;;;;;;20.35;78.35;95789.81;4862244;29;20081;-79
2022/06/24 07:33:22;;;;;;;5.65;1.70;;;;;;;20.13;77.90;95788.22;4863282;29;20049;-79
2022/06/24 07:35:48;;;;;;;4.03;1.58;;;;;;;20.26;78.30;95781.94;4863045;29;20102;-78
2022/06/24 07:38:18;;;;;;;4.35;1.35;;;;;;;20.57;79.43;95774.84;4862224;29;20050;-81
2022/06/24 07:40:45;;;;;;;6.32;1.55;;;;;;;20.69;76.71;95776.41;4878184;29;20049;-79
2022/06/24 07:43:11;;;;;;;5.30;1.63;;;;;;;20.56;79.26;95780.75;4882379;29;20049;-79
2022/06/24 07:45:39;;;;;;;5.35;1.48;;;;;;;20.29;76.21;95796.94;4896823;29;20045;-80
2022/06/24 07:48:06;;;;;;;7.55;1.58;;;;;;;20.48;73.77;95782.75;4887282;29;20041;-80
2022/06/24 07:50:32;;;;;;;5.45;1.00;;;;;;;20.59;73.71;95774.44;4902729;29;20033;-81
2022/06/24 07:53:01;;;;;;;6.00;1.45;;;;;;;20.58;75.45;95773.66;4902313;29;20055;-79
2022/06/24 07:58:13;;;;;;;3.45;1.15;;;;;;;20.70;74.60;95782.72;4894688;29;20055;-81
2022/06/24 08:00:39;;;;;;;4.63;1.17;;;;;;;20.78;74.64;95774.00;4888254;29;20053;-79
2022/06/24 08:03:06;;;;;;;4.88;1.33;;;;;;;20.84;74.41;95777.16;4887785;29;20080;-79
2022/06/24 08:05:32;;;;;;;4.05;1.25;;;;;;;20.81;72.56;95775.19;4886116;29;20048;-79
2022/06/24 08:07:59;;;;;;;3.58;1.05;;;;;;;20.87;73.41;95776.34;4884910;29;20058;-80
2022/06/24 08:10:25;;;;;;;7.72;1.40;;;;;;;20.80;72.89;95777.16;4885688;29;20049;-79
2022/06/24 08:12:53;;;;;;;3.38;1.45;;;;;;;20.81;72.49;95775.97;4884501;29;20543;-79
2022/06/24 08:15:20;;;;;;;4.38;1.48;;;;;;;20.84;72.87;95779.94;4883092;29;20052;-79
2022/06/24 08:17:48;;;;;;;5.47;1.58;;;;;;;20.80;73.29;95781.91;4884513;29;20041;-79
2022/06/24 08:20:15;;;;;;;4.63;1.67;;;;;;;20.92;73.96;95789.78;4883595;29;20056;-79
2022/06/24 08:22:41;;;;;;;2.50;1.20;;;;;;;20.85;74.27;95784.28;4883582;29;20085;-79
2022/06/24 08:25:09;;;;;;;6.38;1.45;;;;;;;20.90;74.77;95777.53;4882734;29;20056;-79
2022/06/24 08:27:35;;;;;;;6.20;1.48;;;;;;;20.89;75.46;95770.44;4866454;29;20497;-80
2022/06/24 08:30:04;;;;;;;4.93;1.88;;;;;;;21.08;75.03;95775.50;4882788;29;20057;-79
2022/06/24 08:32:30;;;;;;;4.03;1.70;;;;;;;21.06;73.03;95767.59;4883336;29;20632;-79
2022/06/24 08:34:57;;;;;;;6.78;1.80;;;;;;;21.12;73.32;95765.22;4883934;29;20045;-79
2022/06/24 08:37:23;;;;;;;5.97;1.67;;;;;;;21.02;73.13;95768.81;4894183;29;20040;-79
2022/06/24 08:39:55;;;;;;;6.78;1.50;;;;;;;21.07;73.67;95755.34;4899318;29;20049;-80
2022/06/24 08:42:27;;;;;;;3.92;1.23;;;;;;;21.32;72.34;95757.25;4894820;29;20125;-79
2022/06/24 08:44:53;;;;;;;5.80;1.30;;;;;;;21.37;67.84;95759.63;4887606;29;20057;-80
2022/06/24 08:47:22;;;;;;;4.05;1.40;;;;;;;21.34;66.58;95766.72;4887862;29;20053;-80
2022/06/24 08:49:49;;;;;;;4.00;1.40;;;;;;;21.28;68.29;95767.53;4885464;29;20060;-79
2022/06/24 08:52:17;;;;;;;6.85;1.80;;;;;;;21.36;68.74;95755.28;4868052;29;20055;-79
2022/06/24 08:54:44;;;;;;;7.22;1.23;;;;;;;21.44;68.26;95764.31;4884940;29;20041;-80
2022/06/24 08:57:11;;;;;;;5.07;1.45;;;;;;;21.29;65.42;95761.59;4884295;29;20053;-79
2022/06/24 08:59:38;;;;;;;6.32;1.42;;;;;;;21.33;65.14;95764.38;4885689;29;20049;-80
2022/06/24 09:02:05;;;;;;;4.53;1.55;;;;;;;21.28;65.47;95759.22;4883884;29;20049;-79
2022/06/24 09:04:34;;;;;;;4.97;1.48;;;;;;;21.30;66.75;95760.44;4883074;29;20501;-79
2022/06/24 09:07:02;;;;;;;6.35;1.90;;;;;;;21.11;65.15;95764.44;4883363;29;20049;-79
2022/06/24 09:09:29;;;;;;;3.85;1.65;;;;;;;21.08;66.20;95765.22;4884253;29;20061;-79
2022/06/24 09:11:58;;;;;;;4.70;1.60;;;;;;;20.96;66.52;95757.34;4883385;29;20053;-80
2022/06/24 09:14:44;;;;;;;7.72;1.77;;;;;;;20.95;67.26;95766.84;4882514;29;20064;-81
2022/06/24 09:17:13;;;;;;;7.97;1.63;;;;;;;20.96;68.04;95757.34;4882351;29;20073;-80
2022/06/24 09:19:43;;;;;;;4.95;1.35;;;;;;;21.08;69.32;95748.59;4885671;29;20558;-79
2022/06/24 09:22:10;;;;;;;4.72;1.40;;;;;;;21.18;72.48;95737.91;4882964;29;20060;-79
2022/06/24 09:24:51;;;;;;;4.93;1.48;;;;;;;21.09;74.31;95728.06;4882292;29;20576;-81
2022/06/24 09:27:17;;;;;;;2.58;1.30;;;;;;;20.91;71.54;95738.41;4881112;29;20555;-79
2022/06/24 09:29:48;;;;;;;3.95;1.38;;;;;;;21.05;73.05;95735.59;4882269;29;20664;-78
2022/06/24 09:32:14;;;;;;;2.45;1.08;;;;;;;21.13;75.40;95736.34;4882070;29;20080;-78
2022/06/24 09:35:01;;;;;;;4.07;1.40;;;;;;;21.19;75.93;95736.72;4882625;29;20051;-79
2022/06/24 09:37:35;;;;;;;4.10;1.30;;;;;;;21.20;75.67;95727.22;4882034;29;20048;-77
2022/06/24 09:40:15;;;;;;;3.58;1.30;;;;;;;21.16;74.57;95720.91;4882313;29;20052;-76
2022/06/24 09:42:42;;;;;;;4.13;1.50;;;;;;;21.03;73.44;95718.56;4883125;29;20052;-80
2022/06/24 09:45:09;;;;;;;3.70;1.70;;;;;;;20.83;74.00;95723.81;4882852;29;20049;-78
2022/06/24 09:47:38;;;;;;;4.25;1.40;;;;;;;20.77;73.42;95721.81;4882479;29;20048;-81
2022/06/24 09:50:07;;;;;;;7.15;1.58;;;;;;;20.96;74.00;95724.16;4883486;29;20056;-80
2022/06/24 09:52:34;;;;;;;5.22;1.55;;;;;;;20.98;74.18;95721.75;4890308;29;20084;-79
2022/06/24 09:55:03;;;;;;;5.78;1.83;;;;;;;20.95;72.89;95717.03;4895227;29;20041;-79
2022/06/24 09:57:30;;;;;;;4.38;1.70;;;;;;;21.20;73.74;95713.38;4890611;29;20052;-79
2022/06/24 10:02:43;;;;;;;5.43;1.25;;;;;;;21.68;70.46;95715.53;4881813;29;20052;-79
2022/06/24 10:05:15;;;;;;;6.72;1.80;;;;;;;21.49;68.90;95723.16;4891400;29;20049;-80
2022/06/24 10:07:46;;;;;;;7.13;2.15;;;;;;;21.76;70.50;95709.50;4891445;29;20041;-80
2022/06/24 10:10:15;;;;;;;6.18;1.52;;;;;;;21.67;69.07;95711.97;4883726;29;20057;-79
2022/06/24 10:12:46;;;;;;;9.25;1.70;;;;;;;22.02;68.97;95702.59;4885680;29;20052;-80
2022/06/24 10:15:15;;;;;;;6.20;1.60;;;;;;;21.85;69.00;95706.28;4882947;29;20089;-79
2022/06/24 10:17:44;;;;;;;6.45;1.90;;;;;;;21.93;68.11;95702.28;4881402;29;20105;-81
2022/06/24 10:20:13;;;;;;;7.45;1.85;;;;;;;22.13;69.46;95703.34;4881267;29;20409;-79
2022/06/24 10:22:43;;;;;;;4.45;1.83;;;;;;;22.40;70.54;95700.72;4881914;29;20094;-79
2022/06/24 10:25:11;;;;;;;4.70;1.70;;;;;;;22.72;72.08;95696.06;4880835;29;20053;-79
2022/06/24 10:28:07;;;;;;;4.47;1.23;;;;;;;23.02;70.95;95685.03;4881543;29;20056;-79
2022/06/24 10:30:58;;;;;;;9.23;1.80;;;;;;;23.01;68.59;95686.22;4880549;29;20068;-79
2022/06/24 10:33:30;;;;;;;6.38;1.92;;;;;;;22.90;68.60;95674.47;4879868;29;20049;-79
2022/06/24 10:36:04;;;;;;;5.07;1.77;;;;;;;22.93;66.26;95668.09;4878775;29;20689;-80
2022/06/24 10:38:37;;;;;;;6.40;1.70;;;;;;;23.14;66.91;95669.81;4882829;29;20045;-80
2022/06/24 10:41:06;;;;;;;6.25;2.22;;;;;;;23.27;68.15;95679.16;4885651;29;20056;-82
2022/06/24 10:43:34;;;;;;;4.32;1.83;;;;;;;23.30;62.62;95675.53;4890019;29;20056;-79
2022/06/24 10:46:18;;;;;;;4.57;1.67;;;;;;;23.41;62.94;95667.06;4886499;29;20068;-79
2022/06/24 10:49:03;;;;;;;7.35;2.05;;;;;;;23.55;63.41;95661.31;4894859;29;20037;-81
2022/06/24 10:51:34;;;;;;;5.55;1.52;;;;;;;23.36;64.20;95662.75;4889058;29;20717;-80
2022/06/24 10:54:14;;;;;;;6.60;1.77;;;;;;;23.17;64.38;95647.53;4888951;29;20355;-80
2022/06/24 10:56:43;;;;;;;4.40;1.67;;;;;;;23.24;64.50;95654.22;4888426;29;20052;-82
2022/06/24 10:59:10;;;;;;;8.50;1.95;;;;;;;23.26;66.74;95646.25;4888213;29;20045;-80
2022/06/24 11:01:40;;;;;;;8.18;1.70;;;;;;;23.23;61.77;95639.53;4887120;29;20045;-79
2022/06/24 11:04:08;;;;;;;6.30;1.98;;;;;;;23.32;62.45;95644.56;4887161;29;20580;-79
2022/06/24 11:06:36;;;;;;;3.50;1.75;;;;;;;23.36;63.57;95646.09;4903033;23;20142;-76
2022/06/24 11:09:06;;;;;;;4.43;1.60;;;;;;;23.60;65.42;95633.03;4899692;29;20500;-75
2022/06/24 11:11:33;;;;;;;9.82;1.80;;;;;;;23.81;65.29;95643.06;4900554;29;20056;-76
2022/06/24 11:14:00;;;;;;;7.07;1.73;;;;;;;23.72;60.72;95644.81;4900734;29;20060;-76
2022/06/24 11:16:28;;;;;;;5.32;2.00;;;;;;;23.73;60.12;95652.72;4900571;29;20045;-76
2022/06/24 11:18:54;;;;;;;5.13;1.90;;;;;;;23.61;59.78;95651.28;4900610;29;20048;-75
2022/06/24 11:21:21;;;;;;;6.85;1.65;;;;;;;23.57;60.35;95645.00;4900185;29;20052;-75
2022/06/24 11:23:54;;;;;;;8.27;1.90;;;;;;;23.30;59.51;95641.44;4900849;29;20048;-75
2022/06/24 11:26:21;;;;;;;6.95;1.63;;;;;;;23.25;59.42;95630.78;4900280;29;20079;-76
2022/06/24 11:28:51;;;;;;;6.63;1.88;;;;;;;23.16;58.29;95622.97;4884287;29;20505;-74
2022/06/24 11:31:19;;;;;;;5.43;1.67;;;;;;;23.25;58.71;95622.44;4881453;29;20131;-75
2022/06/24 11:33:46;;;;;;;6.45;1.80;;;;;;;23.38;60.34;95618.66;4882127;29;20053;-75
2022/06/24 11:36:14;;;;;;;5.40;1.75;;;;;;;23.38;59.76;95613.09;4883198;29;20077;-80
2022/06/24 11:38:58;;;;;;;4.97;1.63;;;;;;;23.40;60.10;95615.47;4883794;29;20071;-80
2022/06/24 11:41:26;;;;;;;8.00;1.95;;;;;;;23.49;61.15;95610.19;4883214;29;20076;-80
2022/06/24 11:43:53;;;;;;;7.00;1.60;;;;;;;23.49;59.04;95610.19;4882879;29;20048;-80
2022/06/24 11:46:20;;;;;;;6.43;1.50;;;;;;;23.35;57.38;95610.41;4882409;29;20147;-79
2022/06/24 11:48:47;;;;;;;4.57;1.52;;;;;;;23.39;59.04;95605.59;4883032;29;20044;-79
2022/06/24 11:51:20;;;;;;;5.07;1.77;;;;;;;23.43;60.24;95606.28;4880615;29;20055;-80
2022/06/24 11:53:57;;;;;;;8.30;1.90;;;;;;;23.26;55.66;95610.13;4881813;29;20391;-78
2022/06/24 11:56:27;;;;;;;7.20;1.75;;;;;;;23.34;60.25;95600.50;4879271;29;20053;-78
2022/06/24 11:58:54;;;;;;;6.70;1.70;;;;;;;23.33;61.27;95601.69;4879386;29;20541;-79
2022/06/24 12:01:21;;;;;;;7.50;1.70;;;;;;;23.42;60.09;95604.72;4877567;29;20060;-80
2022/06/24 12:03:50;;;;;;;7.22;1.60;;;;;;;23.58;60.82;95596.53;4879018;29;20072;-80